Lindford, Minnesota
Current Conditions -  °F | °C
As of 6:55 AM on Friday 28 Nov 2014 (Local Time) from KINL Reporting Station
Clear Clear  
Wind Chill: -4°   Ceiling: Unl
Heat Index:   Visibility: 10mi
Dew Point: -1°   Wind: 5mph
Humidity: 76%   Direction: 90°E
Pressure: 30.03"   Gusts: NA
Location:  48.2756°N, 93.4004°W
Report Text: KINL 281255Z AUTO 09004KT 10SM CLR M15/M18 A3003 RMK AO2 SLP204 T11501183 $
Loading
Personal Weather Stations






























Interactive Weather Map New forecast layout! Learn more

10-Day Weather Forecast

Advertisements
Track Severe Weather on mobile